createdAt,value
2022-09-21T00:00:44.522Z,66.47
2022-09-21T00:06:08.348Z,66.50
2022-09-21T00:11:01.270Z,66.58
2022-09-21T00:16:01.241Z,66.70
2022-09-21T00:21:01.152Z,66.76
2022-09-21T00:26:01.067Z,66.80
2022-09-21T00:31:01.073Z,66.86
2022-09-21T00:36:00.903Z,66.92
2022-09-21T00:41:00.851Z,66.97
2022-09-21T00:46:00.837Z,67.03
2022-09-21T00:51:00.731Z,67.08
2022-09-21T00:56:00.651Z,67.13
2022-09-21T01:01:00.661Z,67.15
2022-09-21T01:06:00.542Z,67.18
2022-09-21T01:11:00.498Z,67.22
2022-09-21T01:16:00.487Z,67.29
2022-09-21T01:21:00.336Z,67.33
2022-09-21T01:26:00.255Z,67.40
2022-09-21T01:31:00.187Z,67.41
2022-09-21T01:36:00.110Z,67.46
2022-09-21T01:41:00.096Z,67.49
2022-09-21T01:46:00.024Z,67.50
2022-09-21T01:50:59.928Z,67.51
2022-09-21T01:55:59.847Z,67.51
2022-09-21T02:00:59.955Z,67.51
2022-09-21T02:05:59.729Z,67.51
2022-09-21T02:10:59.647Z,67.54
2022-09-21T02:15:59.631Z,67.56
2022-09-21T02:20:59.552Z,67.56
2022-09-21T02:25:59.551Z,67.62
2022-09-21T02:30:59.459Z,67.65
2022-09-21T02:35:59.346Z,67.72
2022-09-21T02:40:59.250Z,67.77
2022-09-21T02:45:59.171Z,67.83
2022-09-21T02:50:59.145Z,67.89
2022-09-21T02:55:59.056Z,67.94
2022-09-21T03:00:59.042Z,67.99
2022-09-21T03:05:59.006Z,68.04
2022-09-21T03:10:58.842Z,68.10
2022-09-21T03:15:58.793Z,68.14
2022-09-21T03:20:58.698Z,68.17
2022-09-21T03:25:58.645Z,68.26
2022-09-21T03:30:58.684Z,68.33
2022-09-21T03:35:59.986Z,68.35
2022-09-21T03:40:58.464Z,68.41
2022-09-21T03:45:58.603Z,68.52
2022-09-21T03:50:58.319Z,68.61
2022-09-21T03:55:58.228Z,68.68
2022-09-21T04:00:58.185Z,68.74
2022-09-21T04:05:58.115Z,68.75
2022-09-21T04:10:58.015Z,68.77
2022-09-21T04:16:07.581Z,68.75
2022-09-21T04:20:59.935Z,68.80
2022-09-21T04:25:59.957Z,68.88
2022-09-21T04:30:59.839Z,68.90
2022-09-21T04:35:59.767Z,68.98
2022-09-21T04:40:59.739Z,68.99
2022-09-21T04:45:59.660Z,69.03
2022-09-21T04:50:59.641Z,69.02
2022-09-21T04:55:59.588Z,69.03
2022-09-21T05:00:59.431Z,69.08
2022-09-21T05:05:59.357Z,69.10
2022-09-21T05:10:59.260Z,69.15
2022-09-21T05:15:59.254Z,69.22
2022-09-21T05:20:59.195Z,69.23
2022-09-21T05:25:59.106Z,69.27
2022-09-21T05:31:16.815Z,69.29
2022-09-21T05:35:59.942Z,69.36
2022-09-21T05:40:58.912Z,69.35
2022-09-21T05:45:58.923Z,69.33
2022-09-21T05:50:58.809Z,69.29
2022-09-21T05:55:58.677Z,69.22
2022-09-21T06:00:58.696Z,69.21
2022-09-21T06:05:58.570Z,69.17
2022-09-21T06:10:58.453Z,69.12
2022-09-21T06:15:58.510Z,69.04
2022-09-21T06:20:59.334Z,68.98
2022-09-21T06:25:58.884Z,68.88
2022-09-21T06:30:58.308Z,68.75
2022-09-21T06:35:58.198Z,68.70
2022-09-21T06:40:58.083Z,68.75
2022-09-21T06:45:58.105Z,68.66
2022-09-21T06:50:57.956Z,68.61
2022-09-21T06:55:57.954Z,68.53
2022-09-21T07:00:58.120Z,68.40
2022-09-21T07:05:57.766Z,68.30
2022-09-21T07:10:57.687Z,68.16
2022-09-21T07:15:57.641Z,68.10
2022-09-21T07:20:57.562Z,68.05
2022-09-21T07:25:57.472Z,67.94
2022-09-21T07:30:57.499Z,67.89
2022-09-21T07:35:57.579Z,67.77
2022-09-21T07:40:57.303Z,67.59
2022-09-21T07:45:57.233Z,67.51
2022-09-21T07:50:57.130Z,67.45
2022-09-21T07:55:57.037Z,67.35
2022-09-21T08:00:57.122Z,67.11
2022-09-21T08:05:56.984Z,67.05
2022-09-21T08:10:56.902Z,66.88
2022-09-21T08:15:56.796Z,66.78
2022-09-21T08:20:56.737Z,66.60
2022-09-21T08:25:56.699Z,66.52
2022-09-21T08:30:56.617Z,66.49
2022-09-21T08:35:56.527Z,66.41
2022-09-21T08:40:56.477Z,66.19
2022-09-21T08:45:56.396Z,66.21
2022-09-21T08:50:56.364Z,65.92
2022-09-21T08:55:56.252Z,65.60
2022-09-21T09:00:56.211Z,65.16
2022-09-21T09:05:56.111Z,64.75
2022-09-21T09:10:56.052Z,64.49
2022-09-21T09:15:56.058Z,64.09
2022-09-21T09:20:55.936Z,63.74
2022-09-21T09:25:55.891Z,63.16
2022-09-21T09:30:55.829Z,62.40
2022-09-21T09:35:55.753Z,62.15
2022-09-21T09:40:55.665Z,61.94
2022-09-21T09:45:55.665Z,61.14
2022-09-21T09:50:55.509Z,60.02
2022-09-21T09:55:55.480Z,52.40
2022-09-21T10:00:55.366Z,53.56
2022-09-21T10:05:55.438Z,53.41
2022-09-21T10:10:55.317Z,41.22
2022-09-21T10:15:55.317Z,37.01
2022-09-21T10:20:55.090Z,34.32
2022-09-21T10:25:55.140Z,34.45
2022-09-21T10:30:55.047Z,32.96
2022-09-21T10:35:55.010Z,32.05
2022-09-21T10:40:54.843Z,32.41
2022-09-21T10:45:55.006Z,32.24
2022-09-21T10:50:54.688Z,31.89
2022-09-21T10:56:11.804Z,30.99
2022-09-21T11:00:55.612Z,30.47
2022-09-21T11:05:54.584Z,30.39
2022-09-21T11:10:54.467Z,30.09
2022-09-21T11:15:54.513Z,29.50
2022-09-21T11:20:54.337Z,29.27
2022-09-21T11:25:54.222Z,29.67
2022-09-21T11:30:54.198Z,29.31
2022-09-21T11:35:54.069Z,28.70
2022-09-21T11:40:54.065Z,29.23
2022-09-21T11:45:54.028Z,29.33
2022-09-21T11:50:53.984Z,29.72
2022-09-21T11:55:53.828Z,29.41
2022-09-21T12:00:53.875Z,29.79
2022-09-21T12:05:53.743Z,30.06
2022-09-21T12:10:53.630Z,30.16
2022-09-21T12:15:53.595Z,30.51
2022-09-21T12:20:53.493Z,30.56
2022-09-21T12:25:53.428Z,30.61
2022-09-21T12:30:54.601Z,31.63
2022-09-21T12:35:53.369Z,32.16
2022-09-21T12:40:53.219Z,33.29
2022-09-21T12:45:53.194Z,34.07
2022-09-21T12:50:53.079Z,34.51
2022-09-21T12:55:53.116Z,34.95
2022-09-21T13:00:53.114Z,35.26
2022-09-21T13:05:52.939Z,35.66
2022-09-21T13:10:55.099Z,36.02
2022-09-21T13:15:52.743Z,36.45
2022-09-21T13:20:52.672Z,36.39
2022-09-21T13:25:52.625Z,36.13
2022-09-21T13:30:52.540Z,36.22
2022-09-21T13:35:52.465Z,36.79
2022-09-21T13:40:52.422Z,36.49
2022-09-21T13:45:52.412Z,36.52
2022-09-21T13:50:52.301Z,36.87
2022-09-21T13:55:52.203Z,38.44
2022-09-21T14:00:52.331Z,39.70
2022-09-21T14:05:52.167Z,40.81
2022-09-21T14:10:52.005Z,41.62
2022-09-21T14:15:52.021Z,42.40
2022-09-21T14:20:51.864Z,43.12
2022-09-21T14:25:51.803Z,43.67
2022-09-21T14:30:51.736Z,44.10
2022-09-21T14:35:51.954Z,44.37
2022-09-21T14:40:51.596Z,44.16
2022-09-21T14:45:51.689Z,44.64
2022-09-21T14:50:51.575Z,44.87
2022-09-21T14:55:51.384Z,43.85
2022-09-21T15:00:51.417Z,43.56
2022-09-21T15:05:51.287Z,43.30
2022-09-21T15:10:55.120Z,42.92
2022-09-21T15:15:51.177Z,42.77
2022-09-21T15:20:51.125Z,42.86
2022-09-21T15:25:51.009Z,43.07
2022-09-21T15:30:50.910Z,42.87
2022-09-21T15:35:50.844Z,43.13
2022-09-21T15:40:50.839Z,43.41
2022-09-21T15:45:50.704Z,43.51
2022-09-21T15:50:50.632Z,43.77
2022-09-21T15:55:50.593Z,44.24
2022-09-21T16:00:50.562Z,44.62
2022-09-21T16:05:50.454Z,45.07
2022-09-21T16:10:50.379Z,45.45
2022-09-21T16:15:50.336Z,45.79
2022-09-21T16:20:50.241Z,46.03
2022-09-21T16:25:50.410Z,46.14
2022-09-21T16:30:50.168Z,46.34
2022-09-21T16:35:50.101Z,46.61
2022-09-21T16:40:49.977Z,46.87
2022-09-21T16:45:49.892Z,47.19
2022-09-21T16:50:49.832Z,47.58
2022-09-21T16:55:49.771Z,47.96
2022-09-21T17:00:54.685Z,48.17
2022-09-21T17:05:49.671Z,48.41
2022-09-21T17:10:49.595Z,48.68
2022-09-21T17:15:49.549Z,49.01
2022-09-21T17:20:49.743Z,49.26
2022-09-21T17:25:49.370Z,49.50
2022-09-21T17:30:49.353Z,49.71
2022-09-21T17:35:49.276Z,49.92
2022-09-21T17:40:50.575Z,50.13
2022-09-21T17:45:49.116Z,50.30
2022-09-21T17:50:49.023Z,50.50
2022-09-21T17:55:48.989Z,50.65
2022-09-21T18:00:48.909Z,50.81
2022-09-21T18:05:48.831Z,50.96
2022-09-21T18:10:48.764Z,51.12
2022-09-21T18:15:48.724Z,51.26
2022-09-21T18:20:48.617Z,51.36
2022-09-21T18:25:48.552Z,51.48
2022-09-21T18:30:48.528Z,51.64
2022-09-21T18:35:48.400Z,51.92
2022-09-21T18:40:48.454Z,52.23
2022-09-21T18:45:48.247Z,52.48
2022-09-21T18:50:48.341Z,52.80
2022-09-21T18:55:48.190Z,53.06
2022-09-21T19:00:48.162Z,53.30
2022-09-21T19:05:48.082Z,53.56
2022-09-21T19:10:47.960Z,53.80
2022-09-21T19:16:00.513Z,54.01
2022-09-21T19:20:48.800Z,54.22
2022-09-21T19:25:49.861Z,54.37
2022-09-21T19:30:47.724Z,54.45
2022-09-21T19:35:47.605Z,54.50
2022-09-21T19:40:47.608Z,54.53
2022-09-21T19:45:47.497Z,54.56
2022-09-21T19:50:47.428Z,54.61
2022-09-21T19:55:47.348Z,54.70
2022-09-21T20:00:49.217Z,54.82
2022-09-21T20:05:47.203Z,54.97
2022-09-21T20:10:47.129Z,55.11
2022-09-21T20:15:47.122Z,55.25
2022-09-21T20:20:46.988Z,55.39
2022-09-21T20:25:46.901Z,55.56
2022-09-21T20:30:46.895Z,55.74
2022-09-21T20:35:46.806Z,55.88
2022-09-21T20:40:46.831Z,56.04
2022-09-21T20:45:46.730Z,56.16
2022-09-21T20:50:46.564Z,56.31
2022-09-21T20:55:46.518Z,56.46
2022-09-21T21:00:46.554Z,56.58
2022-09-21T21:05:46.489Z,56.72
2022-09-21T21:10:46.374Z,56.89
2022-09-21T21:15:46.269Z,57.00
2022-09-21T21:20:46.220Z,57.16
2022-09-21T21:25:46.112Z,57.29
2022-09-21T21:30:46.021Z,57.43
2022-09-21T21:35:46.005Z,57.59
2022-09-21T21:40:45.984Z,57.76
2022-09-21T21:45:45.877Z,57.89
2022-09-21T21:50:45.791Z,58.00
2022-09-21T21:55:45.706Z,58.09
2022-09-21T22:00:45.662Z,58.18
2022-09-21T22:05:45.598Z,58.27
2022-09-21T22:10:45.500Z,58.34
2022-09-21T22:15:45.444Z,58.46
2022-09-21T22:20:45.434Z,58.57
2022-09-21T22:25:45.333Z,58.70
2022-09-21T22:30:45.236Z,58.79
2022-09-21T22:35:45.185Z,58.94
2022-09-21T22:40:45.159Z,59.04
2022-09-21T22:45:45.120Z,59.09
2022-09-21T22:50:44.983Z,59.18
2022-09-21T22:55:44.924Z,59.29
2022-09-21T23:00:44.866Z,59.36
2022-09-21T23:05:44.762Z,59.49
2022-09-21T23:10:44.708Z,59.59
2022-09-21T23:15:44.750Z,59.69
2022-09-21T23:20:44.575Z,59.80
2022-09-21T23:25:44.524Z,59.91
2022-09-21T23:30:44.443Z,59.99
2022-09-21T23:35:44.403Z,60.10
2022-09-21T23:40:44.397Z,60.16
2022-09-21T23:45:44.269Z,60.24
2022-09-21T23:50:44.189Z,60.38
2022-09-21T23:55:44.134Z,60.50
